sensor_id;sensor_type;location;lat;lon;timestamp;P1;durP1;ratioP1;P2;durP2;ratioP2
1048;SDS011;513;51.444;7.196;2022-11-20T00:00:15;30.02;;;22.13;;
1048;SDS011;513;51.444;7.196;2022-11-20T00:02:42;31.92;;;21.75;;
1048;SDS011;513;51.444;7.196;2022-11-20T00:05:08;30.67;;;22.00;;
1048;SDS011;513;51.444;7.196;2022-11-20T00:07:35;30.63;;;20.77;;
1048;SDS011;513;51.444;7.196;2022-11-20T00:10:02;34.75;;;22.23;;
1048;SDS011;513;51.444;7.196;2022-11-20T00:12:30;29.52;;;20.98;;
1048;SDS011;513;51.444;7.196;2022-11-20T00:14:57;31.90;;;21.10;;
1048;SDS011;513;51.444;7.196;2022-11-20T00:17:24;30.17;;;20.38;;
1048;SDS011;513;51.444;7.196;2022-11-20T00:19:50;32.42;;;21.77;;
1048;SDS011;513;51.444;7.196;2022-11-20T00:22:17;30.60;;;21.70;;
1048;SDS011;513;51.444;7.196;2022-11-20T00:24:44;28.58;;;19.88;;
1048;SDS011;513;51.444;7.196;2022-11-20T00:27:10;27.73;;;18.73;;
1048;SDS011;513;51.444;7.196;2022-11-20T00:29:38;29.23;;;19.77;;
1048;SDS011;513;51.444;7.196;2022-11-20T00:32:05;26.60;;;18.73;;
1048;SDS011;513;51.444;7.196;2022-11-20T00:34:31;28.95;;;19.27;;
1048;SDS011;513;51.444;7.196;2022-11-20T00:36:58;31.33;;;21.38;;
1048;SDS011;513;51.444;7.196;2022-11-20T00:39:25;33.17;;;21.67;;
1048;SDS011;513;51.444;7.196;2022-11-20T00:41:51;29.83;;;19.92;;
1048;SDS011;513;51.444;7.196;2022-11-20T00:44:18;29.67;;;19.30;;
1048;SDS011;513;51.444;7.196;2022-11-20T00:46:46;31.83;;;20.85;;
1048;SDS011;513;51.444;7.196;2022-11-20T00:49:13;34.40;;;22.83;;
1048;SDS011;513;51.444;7.196;2022-11-20T00:51:39;30.00;;;20.23;;
1048;SDS011;513;51.444;7.196;2022-11-20T00:54:06;28.98;;;19.70;;
1048;SDS011;513;51.444;7.196;2022-11-20T00:56:33;28.73;;;19.40;;
1048;SDS011;513;51.444;7.196;2022-11-20T00:59:00;28.33;;;19.42;;
1048;SDS011;513;51.444;7.196;2022-11-20T01:01:27;27.90;;;18.85;;
1048;SDS011;513;51.444;7.196;2022-11-20T01:03:56;29.40;;;19.05;;
1048;SDS011;513;51.444;7.196;2022-11-20T01:06:26;28.17;;;20.25;;
1048;SDS011;513;51.444;7.196;2022-11-20T01:08:55;27.70;;;18.67;;
1048;SDS011;513;51.444;7.196;2022-11-20T01:11:24;31.73;;;20.30;;
1048;SDS011;513;51.444;7.196;2022-11-20T01:13:52;29.63;;;19.47;;
1048;SDS011;513;51.444;7.196;2022-11-20T01:16:21;29.52;;;20.00;;
1048;SDS011;513;51.444;7.196;2022-11-20T01:18:50;28.63;;;19.65;;
1048;SDS011;513;51.444;7.196;2022-11-20T01:21:20;26.83;;;17.80;;
1048;SDS011;513;51.444;7.196;2022-11-20T01:23:48;26.95;;;18.00;;
1048;SDS011;513;51.444;7.196;2022-11-20T01:26:18;28.83;;;18.98;;
1048;SDS011;513;51.444;7.196;2022-11-20T01:28:46;28.48;;;18.67;;
1048;SDS011;513;51.444;7.196;2022-11-20T01:31:14;28.40;;;18.45;;
1048;SDS011;513;51.444;7.196;2022-11-20T01:33:42;26.33;;;17.95;;
1048;SDS011;513;51.444;7.196;2022-11-20T01:36:09;28.10;;;18.60;;
1048;SDS011;513;51.444;7.196;2022-11-20T01:38:38;27.10;;;18.43;;
1048;SDS011;513;51.444;7.196;2022-11-20T01:41:05;29.25;;;19.40;;
1048;SDS011;513;51.444;7.196;2022-11-20T01:43:33;27.73;;;17.60;;
1048;SDS011;513;51.444;7.196;2022-11-20T01:46:08;24.10;;;16.95;;
1048;SDS011;513;51.444;7.196;2022-11-20T01:48:47;27.00;;;18.90;;
1048;SDS011;513;51.444;7.196;2022-11-20T01:51:19;28.42;;;19.55;;
1048;SDS011;513;51.444;7.196;2022-11-20T01:53:50;27.70;;;18.67;;
1048;SDS011;513;51.444;7.196;2022-11-20T01:56:19;28.98;;;18.60;;
1048;SDS011;513;51.444;7.196;2022-11-20T01:58:47;31.15;;;19.25;;
1048;SDS011;513;51.444;7.196;2022-11-20T02:01:17;27.93;;;18.03;;
1048;SDS011;513;51.444;7.196;2022-11-20T02:03:43;27.02;;;17.50;;
1048;SDS011;513;51.444;7.196;2022-11-20T02:06:11;26.63;;;18.38;;
1048;SDS011;513;51.444;7.196;2022-11-20T02:08:42;27.25;;;18.02;;
1048;SDS011;513;51.444;7.196;2022-11-20T02:11:10;24.67;;;16.92;;
1048;SDS011;513;51.444;7.196;2022-11-20T02:13:38;24.40;;;16.52;;
1048;SDS011;513;51.444;7.196;2022-11-20T02:16:15;23.38;;;15.52;;
1048;SDS011;513;51.444;7.196;2022-11-20T02:18:44;22.98;;;15.35;;
1048;SDS011;513;51.444;7.196;2022-11-20T02:21:19;23.33;;;15.50;;
1048;SDS011;513;51.444;7.196;2022-11-20T02:23:57;22.67;;;15.40;;
1048;SDS011;513;51.444;7.196;2022-11-20T02:26:30;23.08;;;15.65;;
1048;SDS011;513;51.444;7.196;2022-11-20T02:29:00;23.07;;;15.43;;
1048;SDS011;513;51.444;7.196;2022-11-20T02:31:28;21.15;;;15.48;;
1048;SDS011;513;51.444;7.196;2022-11-20T02:33:55;23.10;;;15.40;;
1048;SDS011;513;51.444;7.196;2022-11-20T02:36:22;22.63;;;15.32;;
1048;SDS011;513;51.444;7.196;2022-11-20T02:38:52;21.17;;;15.00;;
1048;SDS011;513;51.444;7.196;2022-11-20T02:41:20;23.35;;;15.73;;
1048;SDS011;513;51.444;7.196;2022-11-20T02:43:47;24.05;;;15.65;;
1048;SDS011;513;51.444;7.196;2022-11-20T02:46:14;24.92;;;16.27;;
1048;SDS011;513;51.444;7.196;2022-11-20T02:48:40;22.13;;;15.00;;
1048;SDS011;513;51.444;7.196;2022-11-20T02:51:07;23.15;;;15.77;;
1048;SDS011;513;51.444;7.196;2022-11-20T02:53:34;24.48;;;15.48;;
1048;SDS011;513;51.444;7.196;2022-11-20T02:56:00;21.35;;;14.98;;
1048;SDS011;513;51.444;7.196;2022-11-20T02:58:28;23.33;;;15.70;;
1048;SDS011;513;51.444;7.196;2022-11-20T03:00:55;22.75;;;15.23;;
1048;SDS011;513;51.444;7.196;2022-11-20T03:03:22;22.17;;;15.50;;
1048;SDS011;513;51.444;7.196;2022-11-20T03:05:48;21.38;;;14.35;;
1048;SDS011;513;51.444;7.196;2022-11-20T03:08:15;22.23;;;14.98;;
1048;SDS011;513;51.444;7.196;2022-11-20T03:10:42;20.88;;;14.18;;
1048;SDS011;513;51.444;7.196;2022-11-20T03:13:08;22.10;;;14.63;;
1048;SDS011;513;51.444;7.196;2022-11-20T03:15:36;23.20;;;14.88;;
1048;SDS011;513;51.444;7.196;2022-11-20T03:18:03;24.85;;;15.63;;
1048;SDS011;513;51.444;7.196;2022-11-20T03:20:31;23.65;;;15.75;;
1048;SDS011;513;51.444;7.196;2022-11-20T03:22:59;22.20;;;14.65;;
1048;SDS011;513;51.444;7.196;2022-11-20T03:25:26;22.80;;;14.63;;
1048;SDS011;513;51.444;7.196;2022-11-20T03:27:53;22.67;;;15.03;;
1048;SDS011;513;51.444;7.196;2022-11-20T03:30:20;20.50;;;13.77;;
1048;SDS011;513;51.444;7.196;2022-11-20T03:32:48;19.38;;;13.52;;
1048;SDS011;513;51.444;7.196;2022-11-20T03:35:18;18.92;;;13.73;;
1048;SDS011;513;51.444;7.196;2022-11-20T03:37:45;19.33;;;13.00;;
1048;SDS011;513;51.444;7.196;2022-11-20T03:40:12;20.85;;;13.93;;
1048;SDS011;513;51.444;7.196;2022-11-20T03:42:38;19.85;;;13.90;;
1048;SDS011;513;51.444;7.196;2022-11-20T03:45:11;19.63;;;13.82;;
1048;SDS011;513;51.444;7.196;2022-11-20T03:47:39;19.00;;;12.63;;
1048;SDS011;513;51.444;7.196;2022-11-20T03:50:07;18.02;;;12.60;;
1048;SDS011;513;51.444;7.196;2022-11-20T03:52:34;18.33;;;12.68;;
1048;SDS011;513;51.444;7.196;2022-11-20T03:55:01;18.92;;;12.88;;
1048;SDS011;513;51.444;7.196;2022-11-20T03:57:28;18.95;;;12.55;;
1048;SDS011;513;51.444;7.196;2022-11-20T03:59:55;18.75;;;13.20;;
1048;SDS011;513;51.444;7.196;2022-11-20T04:02:21;19.83;;;12.50;;
1048;SDS011;513;51.444;7.196;2022-11-20T04:04:48;19.58;;;13.05;;
1048;SDS011;513;51.444;7.196;2022-11-20T04:07:16;18.63;;;12.73;;
1048;SDS011;513;51.444;7.196;2022-11-20T04:09:43;18.60;;;12.30;;
1048;SDS011;513;51.444;7.196;2022-11-20T04:12:09;18.25;;;12.43;;
1048;SDS011;513;51.444;7.196;2022-11-20T04:14:36;16.73;;;12.13;;
1048;SDS011;513;51.444;7.196;2022-11-20T04:17:03;18.92;;;12.32;;
1048;SDS011;513;51.444;7.196;2022-11-20T04:19:30;19.70;;;12.93;;
1048;SDS011;513;51.444;7.196;2022-11-20T04:21:57;21.07;;;13.53;;
1048;SDS011;513;51.444;7.196;2022-11-20T04:24:25;18.80;;;12.82;;
1048;SDS011;513;51.444;7.196;2022-11-20T04:26:52;18.85;;;12.40;;
1048;SDS011;513;51.444;7.196;2022-11-20T04:29:19;18.90;;;12.52;;
1048;SDS011;513;51.444;7.196;2022-11-20T04:31:45;20.83;;;13.70;;
1048;SDS011;513;51.444;7.196;2022-11-20T04:34:12;22.17;;;14.23;;
1048;SDS011;513;51.444;7.196;2022-11-20T04:36:39;20.63;;;14.05;;
1048;SDS011;513;51.444;7.196;2022-11-20T04:39:06;18.50;;;12.73;;
1048;SDS011;513;51.444;7.196;2022-11-20T04:41:35;19.13;;;13.57;;
1048;SDS011;513;51.444;7.196;2022-11-20T04:44:02;18.75;;;12.80;;
1048;SDS011;513;51.444;7.196;2022-11-20T04:46:30;20.13;;;13.77;;
1048;SDS011;513;51.444;7.196;2022-11-20T04:48:59;18.95;;;12.63;;
1048;SDS011;513;51.444;7.196;2022-11-20T04:51:25;19.15;;;13.70;;
1048;SDS011;513;51.444;7.196;2022-11-20T04:53:52;21.38;;;14.15;;
1048;SDS011;513;51.444;7.196;2022-11-20T04:56:19;26.25;;;16.77;;
1048;SDS011;513;51.444;7.196;2022-11-20T04:58:47;27.02;;;17.70;;
1048;SDS011;513;51.444;7.196;2022-11-20T05:01:14;20.90;;;13.70;;
1048;SDS011;513;51.444;7.196;2022-11-20T05:03:43;19.17;;;12.20;;
1048;SDS011;513;51.444;7.196;2022-11-20T05:06:10;18.63;;;12.85;;
1048;SDS011;513;51.444;7.196;2022-11-20T05:08:39;18.90;;;13.00;;
1048;SDS011;513;51.444;7.196;2022-11-20T05:11:06;20.07;;;13.37;;
1048;SDS011;513;51.444;7.196;2022-11-20T05:13:34;19.75;;;13.40;;
1048;SDS011;513;51.444;7.196;2022-11-20T05:16:03;19.92;;;13.52;;
1048;SDS011;513;51.444;7.196;2022-11-20T05:18:30;20.25;;;12.88;;
1048;SDS011;513;51.444;7.196;2022-11-20T05:20:57;18.95;;;13.30;;
1048;SDS011;513;51.444;7.196;2022-11-20T05:23:24;19.60;;;13.57;;
1048;SDS011;513;51.444;7.196;2022-11-20T05:25:51;18.88;;;12.93;;
1048;SDS011;513;51.444;7.196;2022-11-20T05:28:19;21.37;;;13.60;;
1048;SDS011;513;51.444;7.196;2022-11-20T05:30:46;19.60;;;13.87;;
1048;SDS011;513;51.444;7.196;2022-11-20T05:33:14;18.25;;;12.82;;
1048;SDS011;513;51.444;7.196;2022-11-20T05:35:41;21.75;;;13.88;;
1048;SDS011;513;51.444;7.196;2022-11-20T05:38:08;18.13;;;13.15;;
1048;SDS011;513;51.444;7.196;2022-11-20T05:40:35;18.67;;;12.77;;
1048;SDS011;513;51.444;7.196;2022-11-20T05:43:01;21.02;;;13.52;;
1048;SDS011;513;51.444;7.196;2022-11-20T05:45:28;20.58;;;14.25;;
1048;SDS011;513;51.444;7.196;2022-11-20T05:47:57;21.00;;;14.10;;
1048;SDS011;513;51.444;7.196;2022-11-20T05:50:26;20.00;;;14.13;;
1048;SDS011;513;51.444;7.196;2022-11-20T05:52:54;19.60;;;13.85;;
1048;SDS011;513;51.444;7.196;2022-11-20T05:55:20;22.42;;;15.30;;
1048;SDS011;513;51.444;7.196;2022-11-20T05:57:47;21.33;;;15.18;;
1048;SDS011;513;51.444;7.196;2022-11-20T06:00:14;21.42;;;15.30;;
1048;SDS011;513;51.444;7.196;2022-11-20T06:02:41;22.02;;;15.48;;
1048;SDS011;513;51.444;7.196;2022-11-20T06:05:08;20.42;;;14.52;;
1048;SDS011;513;51.444;7.196;2022-11-20T06:07:36;21.85;;;15.55;;
1048;SDS011;513;51.444;7.196;2022-11-20T06:10:03;20.73;;;14.65;;
1048;SDS011;513;51.444;7.196;2022-11-20T06:12:30;20.00;;;13.73;;
1048;SDS011;513;51.444;7.196;2022-11-20T06:14:58;21.13;;;14.75;;
1048;SDS011;513;51.444;7.196;2022-11-20T06:17:25;20.83;;;14.88;;
1048;SDS011;513;51.444;7.196;2022-11-20T06:19:51;20.60;;;15.30;;
1048;SDS011;513;51.444;7.196;2022-11-20T06:22:18;20.35;;;15.48;;
1048;SDS011;513;51.444;7.196;2022-11-20T06:24:46;22.30;;;16.40;;
1048;SDS011;513;51.444;7.196;2022-11-20T06:27:13;20.92;;;15.30;;
1048;SDS011;513;51.444;7.196;2022-11-20T06:29:39;22.27;;;15.60;;
1048;SDS011;513;51.444;7.196;2022-11-20T06:32:06;22.63;;;14.98;;
1048;SDS011;513;51.444;7.196;2022-11-20T06:34:33;20.02;;;14.82;;
1048;SDS011;513;51.444;7.196;2022-11-20T06:36:59;22.17;;;15.63;;
1048;SDS011;513;51.444;7.196;2022-11-20T06:39:26;22.75;;;15.88;;
1048;SDS011;513;51.444;7.196;2022-11-20T06:41:54;21.23;;;15.90;;
1048;SDS011;513;51.444;7.196;2022-11-20T06:44:21;23.17;;;16.10;;
1048;SDS011;513;51.444;7.196;2022-11-20T06:46:47;24.50;;;16.33;;
1048;SDS011;513;51.444;7.196;2022-11-20T06:49:14;23.58;;;16.13;;
1048;SDS011;513;51.444;7.196;2022-11-20T06:51:41;23.58;;;16.55;;
1048;SDS011;513;51.444;7.196;2022-11-20T06:54:07;21.40;;;17.10;;
1048;SDS011;513;51.444;7.196;2022-11-20T06:56:34;23.02;;;15.77;;
1048;SDS011;513;51.444;7.196;2022-11-20T06:59:04;22.00;;;16.30;;
1048;SDS011;513;51.444;7.196;2022-11-20T07:01:31;22.35;;;15.52;;
1048;SDS011;513;51.444;7.196;2022-11-20T07:03:58;22.45;;;15.82;;
1048;SDS011;513;51.444;7.196;2022-11-20T07:06:25;22.60;;;16.02;;
1048;SDS011;513;51.444;7.196;2022-11-20T07:08:52;21.50;;;15.20;;
1048;SDS011;513;51.444;7.196;2022-11-20T07:11:18;21.53;;;15.30;;
1048;SDS011;513;51.444;7.196;2022-11-20T07:13:45;23.63;;;15.50;;
1048;SDS011;513;51.444;7.196;2022-11-20T07:16:13;20.52;;;15.43;;
1048;SDS011;513;51.444;7.196;2022-11-20T07:18:40;22.80;;;15.57;;
1048;SDS011;513;51.444;7.196;2022-11-20T07:21:08;21.95;;;16.30;;
1048;SDS011;513;51.444;7.196;2022-11-20T07:23:35;22.58;;;16.02;;
1048;SDS011;513;51.444;7.196;2022-11-20T07:26:03;21.60;;;15.57;;
1048;SDS011;513;51.444;7.196;2022-11-20T07:28:30;21.88;;;15.98;;
1048;SDS011;513;51.444;7.196;2022-11-20T07:30:57;24.33;;;16.52;;
1048;SDS011;513;51.444;7.196;2022-11-20T07:33:24;25.52;;;17.63;;
1048;SDS011;513;51.444;7.196;2022-11-20T07:35:51;22.58;;;15.70;;
1048;SDS011;513;51.444;7.196;2022-11-20T07:38:18;23.10;;;16.40;;
1048;SDS011;513;51.444;7.196;2022-11-20T07:40:45;23.08;;;15.98;;
1048;SDS011;513;51.444;7.196;2022-11-20T07:43:11;24.42;;;16.27;;
1048;SDS011;513;51.444;7.196;2022-11-20T07:45:38;24.15;;;15.75;;
1048;SDS011;513;51.444;7.196;2022-11-20T07:48:05;22.88;;;16.48;;
1048;SDS011;513;51.444;7.196;2022-11-20T07:50:33;23.35;;;16.52;;
1048;SDS011;513;51.444;7.196;2022-11-20T07:53:00;24.30;;;17.45;;
1048;SDS011;513;51.444;7.196;2022-11-20T07:55:28;22.23;;;16.63;;
1048;SDS011;513;51.444;7.196;2022-11-20T07:57:55;25.00;;;16.90;;
1048;SDS011;513;51.444;7.196;2022-11-20T08:00:22;24.13;;;16.10;;
1048;SDS011;513;51.444;7.196;2022-11-20T08:02:49;22.98;;;16.77;;
1048;SDS011;513;51.444;7.196;2022-11-20T08:05:16;24.10;;;16.55;;
1048;SDS011;513;51.444;7.196;2022-11-20T08:07:44;24.45;;;17.33;;
1048;SDS011;513;51.444;7.196;2022-11-20T08:10:11;23.55;;;17.35;;
1048;SDS011;513;51.444;7.196;2022-11-20T08:12:43;27.27;;;17.98;;
1048;SDS011;513;51.444;7.196;2022-11-20T08:15:28;26.98;;;18.80;;
1048;SDS011;513;51.444;7.196;2022-11-20T08:17:58;29.60;;;19.73;;
1048;SDS011;513;51.444;7.196;2022-11-20T08:20:26;26.88;;;19.05;;
1048;SDS011;513;51.444;7.196;2022-11-20T08:22:58;28.60;;;19.67;;
1048;SDS011;513;51.444;7.196;2022-11-20T08:25:26;27.90;;;20.67;;
1048;SDS011;513;51.444;7.196;2022-11-20T08:27:54;28.67;;;20.17;;
1048;SDS011;513;51.444;7.196;2022-11-20T08:30:22;30.63;;;20.67;;
1048;SDS011;513;51.444;7.196;2022-11-20T08:32:49;28.95;;;20.77;;
1048;SDS011;513;51.444;7.196;2022-11-20T08:35:15;30.88;;;22.52;;
1048;SDS011;513;51.444;7.196;2022-11-20T08:37:45;32.17;;;21.92;;
1048;SDS011;513;51.444;7.196;2022-11-20T08:40:13;30.70;;;22.33;;
1048;SDS011;513;51.444;7.196;2022-11-20T08:42:45;27.48;;;20.38;;
1048;SDS011;513;51.444;7.196;2022-11-20T08:45:12;27.83;;;19.27;;
1048;SDS011;513;51.444;7.196;2022-11-20T08:47:39;25.70;;;19.75;;
1048;SDS011;513;51.444;7.196;2022-11-20T08:50:07;28.15;;;20.25;;
1048;SDS011;513;51.444;7.196;2022-11-20T08:52:34;27.50;;;20.35;;
1048;SDS011;513;51.444;7.196;2022-11-20T08:55:01;24.95;;;17.92;;
1048;SDS011;513;51.444;7.196;2022-11-20T08:57:29;25.08;;;16.80;;
1048;SDS011;513;51.444;7.196;2022-11-20T08:59:58;23.58;;;17.63;;
1048;SDS011;513;51.444;7.196;2022-11-20T09:02:24;24.75;;;17.77;;
1048;SDS011;513;51.444;7.196;2022-11-20T09:04:51;25.95;;;19.08;;
1048;SDS011;513;51.444;7.196;2022-11-20T09:07:18;24.50;;;18.30;;
1048;SDS011;513;51.444;7.196;2022-11-20T09:09:45;24.13;;;16.42;;
1048;SDS011;513;51.444;7.196;2022-11-20T09:12:12;23.75;;;17.02;;
1048;SDS011;513;51.444;7.196;2022-11-20T09:14:41;24.48;;;17.70;;
1048;SDS011;513;51.444;7.196;2022-11-20T09:17:09;24.70;;;17.23;;
1048;SDS011;513;51.444;7.196;2022-11-20T09:19:38;22.35;;;16.35;;
1048;SDS011;513;51.444;7.196;2022-11-20T09:22:05;22.70;;;15.95;;
1048;SDS011;513;51.444;7.196;2022-11-20T09:24:31;23.65;;;16.75;;
1048;SDS011;513;51.444;7.196;2022-11-20T09:27:00;24.77;;;17.33;;
1048;SDS011;513;51.444;7.196;2022-11-20T09:29:28;23.92;;;16.90;;
1048;SDS011;513;51.444;7.196;2022-11-20T09:31:56;21.17;;;15.50;;
1048;SDS011;513;51.444;7.196;2022-11-20T09:34:22;21.02;;;14.88;;
1048;SDS011;513;51.444;7.196;2022-11-20T09:36:49;19.05;;;14.10;;
1048;SDS011;513;51.444;7.196;2022-11-20T09:39:16;22.35;;;15.65;;
1048;SDS011;513;51.444;7.196;2022-11-20T09:41:47;22.88;;;15.75;;
1048;SDS011;513;51.444;7.196;2022-11-20T09:44:51;22.35;;;16.20;;
1048;SDS011;513;51.444;7.196;2022-11-20T09:47:36;22.08;;;16.65;;
1048;SDS011;513;51.444;7.196;2022-11-20T09:50:17;23.95;;;16.77;;
1048;SDS011;513;51.444;7.196;2022-11-20T09:52:54;20.63;;;14.85;;
1048;SDS011;513;51.444;7.196;2022-11-20T09:55:32;20.27;;;14.35;;
1048;SDS011;513;51.444;7.196;2022-11-20T09:58:02;18.35;;;13.95;;
1048;SDS011;513;51.444;7.196;2022-11-20T10:00:32;17.17;;;12.93;;
1048;SDS011;513;51.444;7.196;2022-11-20T10:03:04;19.80;;;14.38;;
1048;SDS011;513;51.444;7.196;2022-11-20T10:05:39;20.65;;;14.98;;
1048;SDS011;513;51.444;7.196;2022-11-20T10:08:11;21.65;;;15.13;;
1048;SDS011;513;51.444;7.196;2022-11-20T10:10:44;20.67;;;14.57;;
1048;SDS011;513;51.444;7.196;2022-11-20T10:13:17;20.58;;;15.43;;
1048;SDS011;513;51.444;7.196;2022-11-20T10:15:54;21.17;;;15.50;;
1048;SDS011;513;51.444;7.196;2022-11-20T10:18:34;23.55;;;16.27;;
1048;SDS011;513;51.444;7.196;2022-11-20T10:21:12;22.38;;;16.52;;
1048;SDS011;513;51.444;7.196;2022-11-20T10:23:48;22.00;;;16.13;;
1048;SDS011;513;51.444;7.196;2022-11-20T10:26:39;24.50;;;16.02;;
1048;SDS011;513;51.444;7.196;2022-11-20T10:29:11;23.30;;;16.10;;
1048;SDS011;513;51.444;7.196;2022-11-20T10:31:42;20.65;;;14.50;;
1048;SDS011;513;51.444;7.196;2022-11-20T10:34:16;24.25;;;16.48;;
1048;SDS011;513;51.444;7.196;2022-11-20T10:36:49;19.33;;;13.90;;
1048;SDS011;513;51.444;7.196;2022-11-20T10:39:22;16.30;;;11.68;;
1048;SDS011;513;51.444;7.196;2022-11-20T10:41:54;15.82;;;11.77;;
1048;SDS011;513;51.444;7.196;2022-11-20T10:44:24;14.20;;;10.33;;
1048;SDS011;513;51.444;7.196;2022-11-20T10:47:16;14.68;;;10.45;;
1048;SDS011;513;51.444;7.196;2022-11-20T10:49:46;14.52;;;10.23;;
1048;SDS011;513;51.444;7.196;2022-11-20T10:52:18;14.32;;;10.27;;
1048;SDS011;513;51.444;7.196;2022-11-20T10:54:52;14.30;;;10.48;;
1048;SDS011;513;51.444;7.196;2022-11-20T10:57:27;13.63;;;9.25;;
1048;SDS011;513;51.444;7.196;2022-11-20T11:00:08;13.40;;;9.65;;
1048;SDS011;513;51.444;7.196;2022-11-20T11:02:39;14.03;;;9.43;;
1048;SDS011;513;51.444;7.196;2022-11-20T11:05:16;13.82;;;9.20;;
1048;SDS011;513;51.444;7.196;2022-11-20T11:07:49;14.05;;;9.23;;
1048;SDS011;513;51.444;7.196;2022-11-20T11:10:19;13.27;;;9.10;;
1048;SDS011;513;51.444;7.196;2022-11-20T11:12:50;12.75;;;8.90;;
1048;SDS011;513;51.444;7.196;2022-11-20T11:15:24;12.73;;;8.73;;
1048;SDS011;513;51.444;7.196;2022-11-20T11:17:53;13.75;;;9.27;;
1048;SDS011;513;51.444;7.196;2022-11-20T11:20:21;15.25;;;9.95;;
1048;SDS011;513;51.444;7.196;2022-11-20T11:22:49;12.07;;;8.85;;
1048;SDS011;513;51.444;7.196;2022-11-20T11:25:18;11.93;;;9.05;;
1048;SDS011;513;51.444;7.196;2022-11-20T11:27:50;13.90;;;9.27;;
1048;SDS011;513;51.444;7.196;2022-11-20T11:30:20;13.20;;;8.68;;
1048;SDS011;513;51.444;7.196;2022-11-20T11:32:47;15.20;;;9.45;;
1048;SDS011;513;51.444;7.196;2022-11-20T11:35:25;14.05;;;9.88;;
1048;SDS011;513;51.444;7.196;2022-11-20T11:37:54;14.18;;;8.77;;
1048;SDS011;513;51.444;7.196;2022-11-20T11:40:28;16.05;;;9.55;;
1048;SDS011;513;51.444;7.196;2022-11-20T11:42:59;14.35;;;10.23;;
1048;SDS011;513;51.444;7.196;2022-11-20T11:45:27;14.60;;;9.73;;
1048;SDS011;513;51.444;7.196;2022-11-20T11:47:53;15.80;;;10.07;;
1048;SDS011;513;51.444;7.196;2022-11-20T11:50:23;15.13;;;10.27;;
1048;SDS011;513;51.444;7.196;2022-11-20T11:53:01;16.33;;;10.00;;
1048;SDS011;513;51.444;7.196;2022-11-20T11:55:35;15.68;;;10.25;;
1048;SDS011;513;51.444;7.196;2022-11-20T11:58:09;14.93;;;10.30;;
1048;SDS011;513;51.444;7.196;2022-11-20T12:00:45;15.98;;;10.52;;
1048;SDS011;513;51.444;7.196;2022-11-20T12:03:21;15.80;;;10.02;;
1048;SDS011;513;51.444;7.196;2022-11-20T12:05:55;15.90;;;10.93;;
1048;SDS011;513;51.444;7.196;2022-11-20T12:08:25;16.02;;;10.65;;
1048;SDS011;513;51.444;7.196;2022-11-20T12:10:56;16.17;;;11.02;;
1048;SDS011;513;51.444;7.196;2022-11-20T12:13:31;17.27;;;11.68;;
1048;SDS011;513;51.444;7.196;2022-11-20T12:16:09;17.17;;;11.40;;
1048;SDS011;513;51.444;7.196;2022-11-20T12:18:39;20.60;;;12.35;;
1048;SDS011;513;51.444;7.196;2022-11-20T12:21:10;16.92;;;11.50;;
1048;SDS011;513;51.444;7.196;2022-11-20T12:23:48;17.20;;;11.88;;
1048;SDS011;513;51.444;7.196;2022-11-20T12:26:33;18.65;;;11.65;;
1048;SDS011;513;51.444;7.196;2022-11-20T12:29:13;17.10;;;11.90;;
1048;SDS011;513;51.444;7.196;2022-11-20T12:31:51;17.90;;;12.60;;
1048;SDS011;513;51.444;7.196;2022-11-20T12:34:35;17.42;;;11.57;;
1048;SDS011;513;51.444;7.196;2022-11-20T12:37:14;19.02;;;12.90;;
1048;SDS011;513;51.444;7.196;2022-11-20T12:39:50;19.27;;;12.95;;
1048;SDS011;513;51.444;7.196;2022-11-20T12:42:23;20.00;;;13.27;;
1048;SDS011;513;51.444;7.196;2022-11-20T12:45:46;19.88;;;12.90;;
1048;SDS011;513;51.444;7.196;2022-11-20T12:51:13;22.27;;;14.68;;
1048;SDS011;513;51.444;7.196;2022-11-20T12:53:55;19.83;;;13.13;;
1048;SDS011;513;51.444;7.196;2022-11-20T12:56:33;18.77;;;13.33;;
1048;SDS011;513;51.444;7.196;2022-11-20T12:59:10;20.45;;;13.13;;
1048;SDS011;513;51.444;7.196;2022-11-20T13:01:50;20.52;;;13.40;;
1048;SDS011;513;51.444;7.196;2022-11-20T13:04:37;19.30;;;13.13;;
1048;SDS011;513;51.444;7.196;2022-11-20T13:07:14;18.25;;;12.45;;
1048;SDS011;513;51.444;7.196;2022-11-20T13:09:44;16.10;;;11.55;;
1048;SDS011;513;51.444;7.196;2022-11-20T13:12:13;20.08;;;12.95;;
1048;SDS011;513;51.444;7.196;2022-11-20T13:14:46;17.23;;;12.18;;
1048;SDS011;513;51.444;7.196;2022-11-20T13:17:19;18.55;;;12.20;;
1048;SDS011;513;51.444;7.196;2022-11-20T13:19:51;18.80;;;12.73;;
1048;SDS011;513;51.444;7.196;2022-11-20T13:22:26;18.70;;;12.30;;
1048;SDS011;513;51.444;7.196;2022-11-20T13:24:55;19.00;;;13.00;;
1048;SDS011;513;51.444;7.196;2022-11-20T13:27:22;20.05;;;13.57;;
1048;SDS011;513;51.444;7.196;2022-11-20T13:30:00;20.52;;;13.45;;
1048;SDS011;513;51.444;7.196;2022-11-20T13:32:42;18.27;;;12.32;;
1048;SDS011;513;51.444;7.196;2022-11-20T13:35:23;21.08;;;13.57;;
1048;SDS011;513;51.444;7.196;2022-11-20T13:37:59;19.67;;;13.60;;
1048;SDS011;513;51.444;7.196;2022-11-20T13:40:28;20.52;;;13.50;;
1048;SDS011;513;51.444;7.196;2022-11-20T13:42:56;19.25;;;13.20;;
1048;SDS011;513;51.444;7.196;2022-11-20T13:45:30;21.58;;;14.07;;
1048;SDS011;513;51.444;7.196;2022-11-20T13:47:59;19.70;;;13.40;;
1048;SDS011;513;51.444;7.196;2022-11-20T13:50:38;20.00;;;13.68;;
1048;SDS011;513;51.444;7.196;2022-11-20T13:53:13;19.07;;;13.20;;
1048;SDS011;513;51.444;7.196;2022-11-20T13:55:50;20.67;;;14.20;;
1048;SDS011;513;51.444;7.196;2022-11-20T13:58:28;19.02;;;13.48;;
1048;SDS011;513;51.444;7.196;2022-11-20T14:01:08;20.63;;;14.33;;
1048;SDS011;513;51.444;7.196;2022-11-20T14:03:36;20.92;;;14.27;;
1048;SDS011;513;51.444;7.196;2022-11-20T14:06:05;22.48;;;13.95;;
1048;SDS011;513;51.444;7.196;2022-11-20T14:08:40;22.90;;;14.57;;
1048;SDS011;513;51.444;7.196;2022-11-20T14:11:15;21.15;;;14.38;;
1048;SDS011;513;51.444;7.196;2022-11-20T14:13:56;23.13;;;15.55;;
1048;SDS011;513;51.444;7.196;2022-11-20T14:16:25;22.50;;;15.55;;
1048;SDS011;513;51.444;7.196;2022-11-20T14:18:53;23.13;;;15.43;;
1048;SDS011;513;51.444;7.196;2022-11-20T14:21:25;22.50;;;15.57;;
1048;SDS011;513;51.444;7.196;2022-11-20T14:23:54;24.05;;;15.95;;
1048;SDS011;513;51.444;7.196;2022-11-20T14:26:30;23.33;;;15.48;;
1048;SDS011;513;51.444;7.196;2022-11-20T14:28:57;22.45;;;15.00;;
1048;SDS011;513;51.444;7.196;2022-11-20T14:31:25;22.60;;;15.70;;
1048;SDS011;513;51.444;7.196;2022-11-20T14:33:54;22.10;;;15.73;;
1048;SDS011;513;51.444;7.196;2022-11-20T14:36:22;23.45;;;15.82;;
1048;SDS011;513;51.444;7.196;2022-11-20T14:38:51;22.27;;;15.35;;
1048;SDS011;513;51.444;7.196;2022-11-20T14:41:19;22.02;;;15.15;;
1048;SDS011;513;51.444;7.196;2022-11-20T14:43:50;24.25;;;16.58;;
1048;SDS011;513;51.444;7.196;2022-11-20T14:46:20;23.88;;;15.88;;
1048;SDS011;513;51.444;7.196;2022-11-20T14:48:48;25.13;;;16.52;;
1048;SDS011;513;51.444;7.196;2022-11-20T14:51:23;26.25;;;16.92;;
1048;SDS011;513;51.444;7.196;2022-11-20T14:53:53;26.35;;;17.83;;
1048;SDS011;513;51.444;7.196;2022-11-20T14:56:21;25.45;;;16.95;;
1048;SDS011;513;51.444;7.196;2022-11-20T14:58:56;24.52;;;16.67;;
1048;SDS011;513;51.444;7.196;2022-11-20T15:01:27;24.83;;;16.70;;
1048;SDS011;513;51.444;7.196;2022-11-20T15:03:59;28.13;;;17.50;;
1048;SDS011;513;51.444;7.196;2022-11-20T15:06:27;29.77;;;17.80;;
1048;SDS011;513;51.444;7.196;2022-11-20T15:08:56;29.25;;;17.95;;
1048;SDS011;513;51.444;7.196;2022-11-20T15:11:25;28.52;;;17.95;;
1048;SDS011;513;51.444;7.196;2022-11-20T15:13:57;28.07;;;17.93;;
1048;SDS011;513;51.444;7.196;2022-11-20T15:16:27;28.27;;;18.13;;
1048;SDS011;513;51.444;7.196;2022-11-20T15:18:54;28.20;;;17.77;;
1048;SDS011;513;51.444;7.196;2022-11-20T15:21:21;28.85;;;17.77;;